Terminal Aerodrome Forecast
Issued by NWS Charleston, WV

Home | Current Version | Previous Version | Text Only | Print | Product List | Glossary On
Versions: 1 2 3 4 5 6 7 8 9 10 11 12 13 14 15 16 17 18 19 20 21 22
000
FTUS41 KRLX 261400 AAA
TAFEKN
TAF AMD
KEKN 261408Z 2614/2712 00000KT 4SM -RA BR OVC021
     FM261800 12004KT 4SM -SN OVC018
     FM262100 29005KT 3SM -SN BR OVC012
     FM262300 28007KT 1SM -SN BR OVC010
     FM270500 29007KT 1SM -SN BR OVC015=

USA.gov is the U.S. government's official web portal to all federal, state and local government web resources and services.